Time;durP1;ratioP1;P1;durP2;ratioP2;P2;SDS_P1;SDS_P2;PMS_P1;PMS_P2;Temp;Humidity;BMP_temperature;BMP_pressure;BME280_temperature;BME280_humidity;BME280_pressure;Samples;Min_cycle;Max_cycle;Signal;HPM_P1;HPM_P2
2021/09/23 00:00:11;;;;;;;6.23;5.60;;;16.10;99.90;;;;;;5024490;28;20430;-64
2021/09/23 00:05:19;;;;;;;8.63;5.80;;;16.10;99.90;;;;;;5022727;28;20437;-66
2021/09/23 00:07:46;;;;;;;7.07;6.37;;;16.00;99.90;;;;;;5025099;28;20447;-65
2021/09/23 00:10:15;;;;;;;7.67;5.63;;;15.90;99.90;;;;;;5028035;28;20427;-69
2021/09/23 00:12:41;;;;;;;6.00;5.30;;;15.80;99.90;;;;;;5023673;28;20466;-69
2021/09/23 00:15:08;;;;;;;5.97;5.33;;;15.70;99.90;;;;;;5010312;28;20493;-65
2021/09/23 00:17:34;;;;;;;5.50;5.00;;;15.60;99.90;;;;;;5026798;28;20535;-69
2021/09/23 00:20:00;;;;;;;7.13;6.00;;;15.70;99.90;;;;;;5024676;28;20486;-64
2021/09/23 00:22:25;;;;;;;8.60;5.47;;;15.70;99.90;;;;;;5023412;28;20508;-64
2021/09/23 00:24:51;;;;;;;6.83;5.80;;;15.70;99.90;;;;;;5025091;28;20196;-64
2021/09/23 00:27:17;;;;;;;9.27;6.10;;;15.50;99.90;;;;;;5025898;28;20263;-64
2021/09/23 00:29:42;;;;;;;7.53;5.47;;;15.60;99.90;;;;;;5024693;28;20691;-64
2021/09/23 00:32:08;;;;;;;6.20;5.00;;;15.50;99.90;;;;;;5023328;28;20299;-64
2021/09/23 00:34:34;;;;;;;8.27;5.27;;;15.30;99.90;;;;;;5023272;28;21353;-64
2021/09/23 00:36:59;;;;;;;6.37;5.50;;;15.20;99.90;;;;;;5028655;28;20679;-68
2021/09/23 00:39:25;;;;;;;8.77;5.77;;;15.30;99.90;;;;;;5021694;28;20234;-69
2021/09/23 00:41:51;;;;;;;5.70;5.00;;;15.40;99.90;;;;;;5026668;28;20185;-69
2021/09/23 00:44:20;;;;;;;14.47;5.70;;;15.40;99.90;;;;;;5009358;28;20181;-69
2021/09/23 00:46:48;;;;;;;8.37;5.17;;;15.50;99.90;;;;;;5020625;28;20454;-69
2021/09/23 00:49:14;;;;;;;6.10;5.47;;;15.50;99.90;;;;;;5026622;28;20431;-67
2021/09/23 00:51:42;;;;;;;5.97;5.20;;;15.50;99.90;;;;;;5026160;28;20788;-68
2021/09/23 00:54:09;;;;;;;7.20;5.80;;;15.40;99.90;;;;;;5024317;28;20462;-67
2021/09/23 00:56:36;;;;;;;7.50;5.33;;;15.40;99.90;;;;;;5007817;28;20470;-63
2021/09/23 00:59:02;;;;;;;6.10;5.50;;;15.30;99.90;;;;;;5023618;28;20802;-68
2021/09/23 01:01:31;;;;;;;7.50;5.70;;;15.20;99.90;;;;;;5024201;28;20438;-63
2021/09/23 01:03:56;;;;;;;7.37;5.50;;;15.30;99.90;;;;;;5008724;28;20949;-63
2021/09/23 01:06:22;;;;;;;5.80;5.20;;;15.20;99.90;;;;;;5023477;28;20431;-69
2021/09/23 01:08:56;;;;;;;6.20;5.20;;;15.10;99.90;;;;;;5026712;28;20184;-65
2021/09/23 01:11:23;;;;;;;7.07;5.90;;;15.20;99.90;;;;;;5021935;28;20591;-65
2021/09/23 01:13:49;;;;;;;6.07;5.47;;;15.20;99.90;;;;;;5023141;28;20466;-65
2021/09/23 01:16:15;;;;;;;8.87;5.83;;;15.20;99.90;;;;;;5025304;28;20820;-65
2021/09/23 01:18:41;;;;;;;6.20;5.60;;;15.20;99.90;;;;;;5025144;28;20439;-65
2021/09/23 01:21:08;;;;;;;8.73;6.50;;;15.10;99.90;;;;;;5022951;28;20189;-68
2021/09/23 01:23:37;;;;;;;6.67;6.03;;;15.00;99.90;;;;;;5026672;28;20176;-69
2021/09/23 01:26:07;;;;;;;8.73;6.17;;;15.00;99.90;;;;;;5024726;28;20953;-64
2021/09/23 01:28:32;;;;;;;5.90;5.30;;;14.70;99.90;;;;;;5009101;28;20459;-69
2021/09/23 01:30:58;;;;;;;7.03;5.40;;;14.70;99.90;;;;;;5022062;28;20824;-67
2021/09/23 01:33:23;;;;;;;6.13;5.53;;;14.80;99.90;;;;;;5022632;28;20789;-67
2021/09/23 01:35:49;;;;;;;7.77;6.13;;;14.60;99.90;;;;;;5027268;28;20176;-68
2021/09/23 01:38:15;;;;;;;6.20;5.30;;;14.60;99.90;;;;;;5025652;28;20209;-68
2021/09/23 01:40:40;;;;;;;7.07;5.57;;;14.60;99.90;;;;;;5005541;28;20212;-63
2021/09/23 01:43:09;;;;;;;6.50;5.90;;;14.50;99.90;;;;;;5025387;28;20188;-63
2021/09/23 01:45:35;;;;;;;6.40;5.70;;;14.50;99.90;;;;;;5005461;28;20272;-66
2021/09/23 01:48:00;;;;;;;6.53;5.63;;;14.50;99.90;;;;;;5023847;28;21007;-68
2021/09/23 01:50:26;;;;;;;7.27;5.63;;;14.60;99.90;;;;;;5024126;28;20181;-68
2021/09/23 01:52:52;;;;;;;6.63;5.30;;;14.60;99.90;;;;;;5021265;28;20658;-68
2021/09/23 01:55:17;;;;;;;6.53;5.90;;;14.50;99.90;;;;;;5025438;28;20577;-64
2021/09/23 01:57:43;;;;;;;6.00;5.03;;;14.40;99.90;;;;;;5022241;28;20197;-64
2021/09/23 02:00:09;;;;;;;7.93;6.20;;;14.40;99.90;;;;;;5023805;28;20247;-65
2021/09/23 02:02:34;;;;;;;8.23;5.87;;;14.40;99.90;;;;;;5026403;28;20200;-68
2021/09/23 02:05:00;;;;;;;8.87;5.83;;;14.20;99.90;;;;;;5019361;28;20470;-69
2021/09/23 02:07:26;;;;;;;5.57;5.07;;;14.20;99.90;;;;;;5019476;28;20220;-68
2021/09/23 02:09:51;;;;;;;6.80;6.07;;;14.40;99.90;;;;;;5023988;28;20196;-69
2021/09/23 02:12:20;;;;;;;6.50;5.33;;;14.40;99.90;;;;;;5021209;28;20276;-69
2021/09/23 02:14:46;;;;;;;6.53;5.37;;;14.40;99.90;;;;;;5022539;28;20185;-68
2021/09/23 02:17:11;;;;;;;11.37;6.03;;;14.50;99.90;;;;;;5009074;28;20451;-67
2021/09/23 02:19:37;;;;;;;8.60;6.33;;;14.50;99.90;;;;;;5022766;28;20197;-64
2021/09/23 02:22:03;;;;;;;5.47;4.93;;;14.40;99.90;;;;;;5026143;28;20271;-64
2021/09/23 02:24:28;;;;;;;5.80;5.20;;;14.40;99.90;;;;;;5022152;28;20188;-64
2021/09/23 02:26:54;;;;;;;6.37;5.70;;;14.20;99.90;;;;;;5023060;28;20254;-67
2021/09/23 02:29:20;;;;;;;10.70;7.23;;;14.20;99.90;;;;;;5022430;28;20211;-69
2021/09/23 02:31:46;;;;;;;5.30;4.80;;;14.30;99.90;;;;;;5020173;28;20428;-64
2021/09/23 02:34:12;;;;;;;8.27;7.23;;;14.30;99.90;;;;;;5024696;28;20696;-64
2021/09/23 02:36:38;;;;;;;8.60;5.50;;;14.20;99.90;;;;;;5021770;28;20291;-65
2021/09/23 02:39:04;;;;;;;6.80;5.93;;;14.10;99.90;;;;;;5023768;28;20518;-65
2021/09/23 02:41:31;;;;;;;8.33;6.27;;;14.00;99.90;;;;;;5023192;28;20185;-68
2021/09/23 02:43:57;;;;;;;8.23;6.57;;;13.90;99.90;;;;;;5020915;28;20993;-67
2021/09/23 02:46:23;;;;;;;8.63;6.07;;;13.90;99.90;;;;;;5022952;28;20454;-67
2021/09/23 02:48:48;;;;;;;6.47;5.87;;;13.90;99.90;;;;;;5022710;28;20428;-67
2021/09/23 02:51:14;;;;;;;9.70;5.93;;;13.90;99.90;;;;;;5023876;28;20204;-69
2021/09/23 02:53:40;;;;;;;8.73;5.90;;;13.90;99.90;;;;;;5025174;28;20278;-67
2021/09/23 02:56:05;;;;;;;6.07;5.47;;;14.00;99.90;;;;;;5023158;28;20192;-65
2021/09/23 02:58:31;;;;;;;6.50;5.80;;;14.10;99.90;;;;;;5009294;28;20266;-65
2021/09/23 03:00:57;;;;;;;9.30;6.70;;;14.20;99.90;;;;;;5028865;28;20651;-65
2021/09/23 03:03:22;;;;;;;7.60;6.13;;;14.20;99.90;;;;;;5026671;28;20223;-69
2021/09/23 03:05:48;;;;;;;8.90;6.40;;;14.20;99.90;;;;;;5027133;28;20686;-64
2021/09/23 03:08:14;;;;;;;6.17;5.27;;;14.20;99.90;;;;;;5025093;28;20247;-65
2021/09/23 03:10:39;;;;;;;5.97;5.07;;;14.20;99.90;;;;;;5023520;28;20377;-64
2021/09/23 03:13:05;;;;;;;12.30;6.80;;;14.20;99.90;;;;;;5028011;28;20590;-64
2021/09/23 03:15:31;;;;;;;17.43;6.90;;;14.30;99.90;;;;;;5011047;28;20689;-64
2021/09/23 03:17:56;;;;;;;5.90;5.30;;;14.40;99.90;;;;;;5010191;28;20303;-64
2021/09/23 03:20:24;;;;;;;7.17;5.90;;;14.30;99.90;;;;;;5010217;28;20697;-67
2021/09/23 03:22:53;;;;;;;6.93;6.23;;;14.00;99.90;;;;;;5025467;28;20702;-67
2021/09/23 03:25:19;;;;;;;6.57;5.73;;;14.10;99.90;;;;;;5008371;28;21006;-67
2021/09/23 03:27:45;;;;;;;7.50;6.10;;;14.20;99.90;;;;;;5012054;28;20558;-65
2021/09/23 03:30:12;;;;;;;6.53;5.53;;;14.00;99.90;;;;;;5025547;28;20192;-65
2021/09/23 03:32:38;;;;;;;8.90;5.67;;;14.00;99.90;;;;;;5024376;28;20468;-68
2021/09/23 03:35:04;;;;;;;7.00;5.60;;;14.00;99.90;;;;;;5027904;28;20925;-67
2021/09/23 03:37:30;;;;;;;6.40;5.80;;;14.10;99.90;;;;;;5009850;28;20451;-67
2021/09/23 03:39:55;;;;;;;7.33;6.00;;;14.30;99.90;;;;;;5025517;28;20435;-67
2021/09/23 03:42:21;;;;;;;10.63;6.20;;;14.20;99.90;;;;;;5027117;28;20558;-64
2021/09/23 03:44:47;;;;;;;7.93;6.30;;;14.00;99.90;;;;;;5021620;28;20197;-64
2021/09/23 03:47:13;;;;;;;8.93;5.93;;;14.10;99.90;;;;;;5010330;28;20238;-68
2021/09/23 03:49:39;;;;;;;6.47;5.20;;;14.20;99.90;;;;;;5026810;28;20416;-69
2021/09/23 03:52:05;;;;;;;6.97;5.80;;;14.20;99.90;;;;;;5024747;28;20891;-69
2021/09/23 03:54:31;;;;;;;6.50;5.80;;;14.00;99.90;;;;;;5026837;28;20260;-64
2021/09/23 03:56:57;;;;;;;7.83;6.07;;;13.90;99.90;;;;;;5023312;28;20446;-64
2021/09/23 03:59:22;;;;;;;9.60;5.77;;;14.00;99.90;;;;;;5026305;28;20424;-64
2021/09/23 04:01:49;;;;;;;8.10;5.70;;;14.10;99.90;;;;;;5028601;28;20639;-68
2021/09/23 04:04:15;;;;;;;9.60;5.53;;;14.20;99.90;;;;;;5024379;28;20587;-67
2021/09/23 04:06:44;;;;;;;7.90;5.67;;;14.10;99.90;;;;;;5024203;28;20471;-64
2021/09/23 04:09:13;;;;;;;5.60;5.07;;;13.90;99.90;;;;;;5026615;28;20422;-68
2021/09/23 04:11:39;;;;;;;10.00;6.70;;;14.10;99.90;;;;;;5026265;28;20431;-65
2021/09/23 04:14:08;;;;;;;6.00;5.40;;;14.30;99.90;;;;;;5011097;28;20805;-65
2021/09/23 04:16:34;;;;;;;9.53;7.00;;;14.20;99.90;;;;;;5023759;28;20518;-69
2021/09/23 04:19:00;;;;;;;6.13;5.30;;;14.20;99.90;;;;;;5024961;28;20934;-65
2021/09/23 04:21:26;;;;;;;6.20;5.60;;;13.90;99.90;;;;;;5026704;28;20177;-67
2021/09/23 04:23:58;;;;;;;7.40;6.10;;;13.90;99.90;;;;;;5005183;28;20451;-67
2021/09/23 04:26:24;;;;;;;6.70;6.00;;;13.90;99.90;;;;;;5027082;28;20432;-65
2021/09/23 04:28:49;;;;;;;8.70;6.13;;;14.00;99.90;;;;;;5010973;28;20922;-65
2021/09/23 04:31:15;;;;;;;6.50;5.27;;;14.00;99.90;;;;;;5024521;28;20188;-64
2021/09/23 04:33:41;;;;;;;8.73;6.07;;;14.10;99.90;;;;;;5009314;28;20871;-67
2021/09/23 04:36:06;;;;;;;7.50;6.20;;;13.90;99.90;;;;;;5022104;28;20180;-68
2021/09/23 04:38:32;;;;;;;6.70;5.03;;;13.60;99.90;;;;;;5026022;28;20236;-64
2021/09/23 04:40:58;;;;;;;9.30;6.10;;;13.70;99.90;;;;;;5026660;28;20215;-65
2021/09/23 04:43:23;;;;;;;7.30;5.93;;;13.70;99.90;;;;;;5022653;28;20228;-63
2021/09/23 04:45:49;;;;;;;8.37;6.77;;;13.30;99.90;;;;;;5008869;28;20722;-67
2021/09/23 04:48:15;;;;;;;6.50;5.23;;;13.30;99.90;;;;;;5024657;28;20231;-67
2021/09/23 04:50:40;;;;;;;10.60;6.57;;;13.30;99.90;;;;;;5021812;28;20550;-67
2021/09/23 04:53:06;;;;;;;8.57;5.90;;;13.20;99.90;;;;;;5025918;28;20431;-65
2021/09/23 04:55:32;;;;;;;8.00;6.63;;;13.30;99.90;;;;;;5023614;28;20184;-68
2021/09/23 04:58:00;;;;;;;9.43;6.17;;;13.10;99.90;;;;;;5027292;28;20458;-64
2021/09/23 05:00:25;;;;;;;7.60;6.43;;;13.10;99.90;;;;;;5024179;28;20203;-64
2021/09/23 05:02:51;;;;;;;7.20;6.00;;;13.30;99.90;;;;;;5024103;28;20419;-65
2021/09/23 05:05:17;;;;;;;10.07;7.10;;;13.40;99.90;;;;;;5025504;28;20188;-65
2021/09/23 05:07:43;;;;;;;8.83;6.20;;;13.10;99.90;;;;;;5025293;28;20438;-67
2021/09/23 05:10:09;;;;;;;12.70;6.50;;;13.10;99.90;;;;;;5022570;28;20291;-65
2021/09/23 05:12:34;;;;;;;9.90;6.80;;;13.00;99.90;;;;;;5024014;28;20295;-68
2021/09/23 05:15:00;;;;;;;6.20;5.57;;;13.00;99.90;;;;;;5023186;28;20538;-64
2021/09/23 05:17:26;;;;;;;7.07;6.10;;;13.00;99.90;;;;;;5023241;28;20212;-64
2021/09/23 05:19:51;;;;;;;7.43;6.33;;;12.80;99.90;;;;;;5023659;28;20180;-64
2021/09/23 05:22:17;;;;;;;9.23;6.13;;;12.80;99.90;;;;;;5003495;28;20185;-67
2021/09/23 05:24:47;;;;;;;7.40;6.40;;;12.70;99.90;;;;;;5025160;28;20220;-67
2021/09/23 05:27:13;;;;;;;9.57;7.30;;;12.70;99.90;;;;;;5008840;28;20485;-64
2021/09/23 05:29:40;;;;;;;6.10;5.50;;;12.50;99.90;;;;;;5023446;28;21013;-64
2021/09/23 05:32:06;;;;;;;9.27;5.70;;;12.50;99.90;;;;;;5024517;28;20517;-63
2021/09/23 05:34:32;;;;;;;7.73;5.63;;;12.50;99.90;;;;;;5009319;28;20452;-63
2021/09/23 05:36:58;;;;;;;5.77;5.00;;;12.60;99.90;;;;;;5023429;28;20949;-64
2021/09/23 05:39:24;;;;;;;5.93;5.03;;;12.60;99.90;;;;;;5024756;28;20447;-64
2021/09/23 05:41:49;;;;;;;6.40;4.90;;;12.40;99.90;;;;;;5024023;28;20192;-63
2021/09/23 05:44:15;;;;;;;6.13;5.47;;;12.00;99.90;;;;;;5023228;28;20190;-68
2021/09/23 05:46:41;;;;;;;7.33;4.80;;;11.90;99.90;;;;;;5006513;28;20393;-68
2021/09/23 05:49:06;;;;;;;12.70;4.60;;;11.70;99.90;;;;;;5024643;28;20181;-65
2021/09/23 05:51:32;;;;;;;5.90;4.77;;;11.50;99.90;;;;;;5023070;28;20173;-70
2021/09/23 05:53:58;;;;;;;5.50;5.00;;;11.30;99.90;;;;;;5021077;28;20517;-64
2021/09/23 05:56:23;;;;;;;6.73;4.70;;;11.30;99.90;;;;;;5022716;28;20198;-67
2021/09/23 05:58:49;;;;;;;7.80;5.70;;;11.40;99.90;;;;;;5025782;28;20230;-63
2021/09/23 06:01:15;;;;;;;6.00;4.87;;;11.50;99.90;;;;;;5026329;28;20559;-66
2021/09/23 06:03:40;;;;;;;9.60;4.93;;;11.50;99.90;;;;;;5022706;28;20184;-64
2021/09/23 06:06:06;;;;;;;10.70;6.40;;;11.40;99.90;;;;;;5026232;28;20177;-65
2021/09/23 06:08:32;;;;;;;8.17;6.30;;;11.60;99.90;;;;;;5022795;28;20632;-68
2021/09/23 06:10:57;;;;;;;6.63;5.83;;;11.90;99.90;;;;;;5026292;28;21259;-64
2021/09/23 06:13:23;;;;;;;7.43;6.67;;;12.00;99.90;;;;;;5024636;28;20228;-67
2021/09/23 06:15:50;;;;;;;9.63;6.10;;;11.80;99.90;;;;;;5022851;28;20224;-64
2021/09/23 06:18:16;;;;;;;7.80;5.93;;;11.90;99.90;;;;;;5024443;28;20215;-67
2021/09/23 06:20:44;;;;;;;11.07;7.53;;;11.80;99.90;;;;;;5022333;28;20963;-69
2021/09/23 06:23:10;;;;;;;10.47;7.40;;;11.60;99.90;;;;;;5024229;28;20423;-65
2021/09/23 06:25:37;;;;;;;12.53;10.30;;;11.50;99.90;;;;;;5024447;28;20442;-64
2021/09/23 06:28:03;;;;;;;8.67;7.23;;;11.60;99.90;;;;;;5024402;28;20212;-66
2021/09/23 06:30:29;;;;;;;13.57;7.23;;;11.50;99.90;;;;;;5023725;28;21056;-65
2021/09/23 06:32:55;;;;;;;8.30;7.30;;;11.30;99.90;;;;;;5026779;28;20541;-64
2021/09/23 06:35:20;;;;;;;11.63;8.17;;;11.30;99.90;;;;;;5025439;28;20187;-69
2021/09/23 06:37:47;;;;;;;9.70;7.90;;;11.30;99.90;;;;;;5029740;28;20215;-68
2021/09/23 06:40:13;;;;;;;11.53;7.67;;;11.20;99.90;;;;;;5025603;28;20188;-68
2021/09/23 06:42:40;;;;;;;9.40;7.80;;;11.20;99.90;;;;;;5028105;28;20494;-69
2021/09/23 06:45:06;;;;;;;11.93;7.93;;;11.30;99.90;;;;;;5027903;28;20794;-68
2021/09/23 06:47:32;;;;;;;12.60;8.03;;;11.40;99.90;;;;;;5026259;28;20450;-68
2021/09/23 06:49:58;;;;;;;12.87;9.30;;;11.50;99.90;;;;;;5028243;28;20450;-67
2021/09/23 06:52:23;;;;;;;9.50;8.50;;;11.50;99.90;;;;;;5027012;28;20528;-65
2021/09/23 06:54:49;;;;;;;13.70;9.00;;;11.40;99.90;;;;;;5025228;28;20682;-69
2021/09/23 06:57:15;;;;;;;14.30;8.80;;;11.50;99.90;;;;;;5011188;28;20204;-68
2021/09/23 06:59:40;;;;;;;15.53;8.97;;;11.40;99.90;;;;;;5026931;28;20185;-65
2021/09/23 07:02:09;;;;;;;14.73;10.20;;;11.50;99.90;;;;;;5025385;28;20188;-65
2021/09/23 07:04:35;;;;;;;13.70;10.10;;;11.70;99.90;;;;;;5025244;28;20252;-67
2021/09/23 07:07:01;;;;;;;13.30;9.80;;;11.60;99.90;;;;;;5026102;28;20534;-65
2021/09/23 07:09:26;;;;;;;11.33;9.00;;;11.80;99.90;;;;;;5028685;28;20200;-65
2021/09/23 07:11:56;;;;;;;11.40;9.80;;;11.90;99.90;;;;;;5029013;28;20188;-64
2021/09/23 07:14:22;;;;;;;15.93;9.97;;;11.90;99.90;;;;;;5024085;28;20287;-67
2021/09/23 07:16:49;;;;;;;13.60;10.40;;;11.80;99.90;;;;;;5026583;28;20476;-65
2021/09/23 07:19:17;;;;;;;12.93;10.77;;;11.90;99.90;;;;;;5027082;28;20419;-65
2021/09/23 07:21:42;;;;;;;15.97;12.13;;;12.00;99.90;;;;;;5027859;28;20467;-66
2021/09/23 07:24:08;;;;;;;11.97;10.23;;;12.20;99.90;;;;;;5008817;28;20997;-65
2021/09/23 07:26:34;;;;;;;12.67;9.23;;;12.20;99.90;;;;;;5027465;28;20201;-67
2021/09/23 07:29:00;;;;;;;12.67;10.10;;;12.30;99.90;;;;;;5025117;28;20276;-68
2021/09/23 07:31:26;;;;;;;15.07;11.00;;;12.30;99.90;;;;;;5027546;28;20963;-65
2021/09/23 07:33:51;;;;;;;13.77;10.57;;;12.30;99.90;;;;;;5022572;28;20200;-65
2021/09/23 07:36:19;;;;;;;14.97;10.70;;;12.30;99.90;;;;;;5025849;28;20436;-65
2021/09/23 07:38:44;;;;;;;18.47;11.40;;;12.50;99.90;;;;;;5028410;28;20192;-65
2021/09/23 07:41:10;;;;;;;13.87;11.00;;;12.50;99.90;;;;;;5024609;28;20453;-67
2021/09/23 07:43:39;;;;;;;16.07;11.07;;;12.50;99.90;;;;;;5028192;28;20192;-68
2021/09/23 07:46:05;;;;;;;17.10;11.20;;;12.60;99.90;;;;;;4994021;28;20567;-68
2021/09/23 07:48:30;;;;;;;15.10;10.73;;;12.60;99.90;;;;;;5024379;28;20451;-68
2021/09/23 07:50:59;;;;;;;15.43;11.30;;;12.70;99.90;;;;;;5026161;28;20189;-67
2021/09/23 07:53:25;;;;;;;14.60;11.03;;;12.90;99.90;;;;;;5026236;28;20208;-63
2021/09/23 07:55:52;;;;;;;60.50;14.47;;;13.00;99.90;;;;;;5023182;28;20423;-63
2021/09/23 07:58:18;;;;;;;21.03;12.47;;;12.90;99.90;;;;;;5027326;28;20207;-67
2021/09/23 08:00:44;;;;;;;19.30;11.77;;;13.00;99.90;;;;;;5025636;28;20444;-67
2021/09/23 08:03:09;;;;;;;19.67;12.60;;;13.10;99.90;;;;;;5025020;28;20436;-68
2021/09/23 08:05:35;;;;;;;16.83;11.90;;;13.20;99.90;;;;;;5026827;28;20742;-65
2021/09/23 08:08:02;;;;;;;15.73;11.80;;;13.20;99.90;;;;;;5023475;28;20208;-63
2021/09/23 08:10:28;;;;;;;13.40;10.97;;;13.30;99.90;;;;;;5041219;23;20895;-60
2021/09/23 08:12:54;;;;;;;15.10;10.17;;;13.40;99.90;;;;;;5007890;28;20653;-64
2021/09/23 08:15:19;;;;;;;14.37;10.90;;;13.40;99.90;;;;;;5025904;28;20982;-60
2021/09/23 08:17:45;;;;;;;12.73;10.13;;;13.50;99.90;;;;;;5023422;28;20554;-60
2021/09/23 08:20:11;;;;;;;14.80;11.17;;;13.50;99.90;;;;;;5022205;28;20679;-60
2021/09/23 08:22:38;;;;;;;15.67;9.63;;;13.60;99.90;;;;;;5002042;28;20201;-60
2021/09/23 08:25:06;;;;;;;14.57;9.07;;;13.60;99.90;;;;;;5023778;28;20435;-64
2021/09/23 08:27:32;;;;;;;13.20;8.70;;;13.70;99.90;;;;;;5020945;28;20829;-64
2021/09/23 08:29:58;;;;;;;13.27;9.07;;;13.80;99.90;;;;;;5019482;28;20427;-61
2021/09/23 08:32:24;;;;;;;11.87;9.33;;;13.90;99.90;;;;;;5021056;28;20424;-60
2021/09/23 08:34:51;;;;;;;14.63;8.80;;;13.90;99.90;;;;;;5021533;28;20967;-61
2021/09/23 08:37:18;;;;;;;10.80;8.53;;;13.90;99.90;;;;;;5024721;28;20200;-64
2021/09/23 08:39:44;;;;;;;9.20;8.10;;;14.00;99.90;;;;;;5004957;28;20767;-60
2021/09/23 08:42:09;;;;;;;17.70;8.80;;;14.10;99.90;;;;;;5018550;28;20430;-60
2021/09/23 08:44:36;;;;;;;14.20;9.43;;;14.20;99.90;;;;;;5025553;28;20242;-60
2021/09/23 08:47:03;;;;;;;13.60;8.40;;;14.20;99.90;;;;;;5023889;28;20204;-61
2021/09/23 08:49:29;;;;;;;14.00;9.50;;;14.20;99.90;;;;;;5007947;28;20467;-64
2021/09/23 08:51:55;;;;;;;13.20;9.57;;;14.20;99.90;;;;;;5019055;28;20463;-60
2021/09/23 08:54:21;;;;;;;9.37;7.97;;;14.30;99.90;;;;;;5021698;28;20650;-60
2021/09/23 08:56:48;;;;;;;11.07;9.00;;;14.50;99.90;;;;;;5022855;28;21304;-60
2021/09/23 08:59:14;;;;;;;11.13;7.87;;;14.50;99.90;;;;;;5005234;28;20515;-60
2021/09/23 09:01:48;;;;;;;12.23;9.13;;;14.60;99.90;;;;;;5020779;28;20526;-60
2021/09/23 09:04:14;;;;;;;12.93;8.33;;;14.70;99.90;;;;;;5023530;28;20188;-61
2021/09/23 09:06:55;;;;;;;10.33;7.63;;;14.80;99.90;;;;;;5024674;28;20831;-63
2021/09/23 09:09:21;;;;;;;12.10;9.37;;;14.80;99.90;;;;;;5019703;28;20942;-60
2021/09/23 09:11:51;;;;;;;10.23;7.67;;;14.80;99.90;;;;;;5025789;28;20470;-61
2021/09/23 09:14:28;;;;;;;13.93;7.97;;;14.90;99.90;;;;;;5022466;28;20553;-61
2021/09/23 09:17:02;;;;;;;8.63;7.03;;;15.00;99.90;;;;;;5020409;28;20540;-60
2021/09/23 09:19:55;;;;;;;8.73;7.10;;;15.10;99.90;;;;;;5020759;28;20626;-60
2021/09/23 09:22:26;;;;;;;7.73;6.70;;;15.10;99.90;;;;;;5022766;28;20449;-61
2021/09/23 09:24:58;;;;;;;13.67;9.93;;;15.20;99.90;;;;;;5018665;28;20781;-61
2021/09/23 09:27:31;;;;;;;10.33;8.63;;;15.20;99.90;;;;;;5021592;28;20593;-60
2021/09/23 09:29:59;;;;;;;10.50;7.30;;;15.40;99.90;;;;;;5022524;28;20549;-60
2021/09/23 09:32:41;;;;;;;12.57;7.70;;;15.40;99.90;;;;;;5021128;28;20438;-61
2021/09/23 09:35:11;;;;;;;8.47;6.40;;;15.60;99.90;;;;;;5021624;28;20430;-60
2021/09/23 09:37:39;;;;;;;10.87;6.90;;;15.70;99.90;;;;;;5018622;28;20811;-61
2021/09/23 09:40:06;;;;;;;6.57;5.90;;;15.70;99.90;;;;;;5020567;28;20929;-61
2021/09/23 09:42:32;;;;;;;10.63;8.60;;;15.70;99.90;;;;;;5025429;28;20411;-64
2021/09/23 09:44:59;;;;;;;8.97;6.70;;;15.80;99.90;;;;;;5019351;28;20426;-60
2021/09/23 09:47:33;;;;;;;6.83;6.20;;;15.80;99.90;;;;;;5022041;28;20454;-61
2021/09/23 09:50:15;;;;;;;8.27;5.70;;;16.00;99.90;;;;;;5018606;28;20462;-61
2021/09/23 09:52:50;;;;;;;7.93;6.00;;;16.00;99.90;;;;;;5017802;28;20466;-61
2021/09/23 09:55:18;;;;;;;5.80;5.20;;;16.10;99.90;;;;;;5004050;28;20434;-61
2021/09/23 09:57:48;;;;;;;5.70;4.97;;;16.10;99.90;;;;;;5023824;28;20946;-61
2021/09/23 10:00:15;;;;;;;7.00;5.43;;;16.20;99.90;;;;;;5019238;28;20915;-61
2021/09/23 10:02:43;;;;;;;8.70;5.30;;;16.30;99.90;;;;;;5019529;28;20829;-63
2021/09/23 10:05:14;;;;;;;6.90;5.93;;;16.30;99.90;;;;;;5007717;28;20426;-64
2021/09/23 10:07:44;;;;;;;7.10;5.70;;;16.40;99.90;;;;;;5022666;28;20954;-64
2021/09/23 10:10:11;;;;;;;6.13;5.40;;;16.50;99.90;;;;;;5029478;28;20453;-64
2021/09/23 10:12:40;;;;;;;6.93;5.70;;;16.60;99.90;;;;;;5007131;28;20823;-60
2021/09/23 10:15:08;;;;;;;8.30;5.83;;;16.60;99.90;;;;;;5026476;28;20451;-64
2021/09/23 10:17:34;;;;;;;8.03;6.43;;;16.60;99.90;;;;;;5022070;28;20435;-64
2021/09/23 10:20:02;;;;;;;7.03;5.50;;;16.60;99.90;;;;;;5006155;28;20808;-64
2021/09/23 10:22:28;;;;;;;8.80;5.73;;;16.70;99.90;;;;;;5025786;28;20458;-64
2021/09/23 10:24:55;;;;;;;7.30;4.80;;;16.80;99.90;;;;;;5027019;28;20412;-64
2021/09/23 10:30:09;;;;;;;18.40;6.43;;;17.00;99.90;;;;;;5012053;28;20469;-60
2021/09/23 10:32:36;;;;;;;5.37;4.83;;;17.10;99.90;;;;;;5026498;28;20506;-64
2021/09/23 10:35:03;;;;;;;6.23;4.70;;;17.10;99.90;;;;;;5023602;28;20955;-61
2021/09/23 10:37:29;;;;;;;5.97;5.30;;;17.10;99.90;;;;;;5024927;28;20541;-60
2021/09/23 10:39:56;;;;;;;12.33;5.87;;;17.20;99.90;;;;;;5023515;28;20432;-60
2021/09/23 10:42:23;;;;;;;6.83;5.53;;;17.40;99.90;;;;;;5009328;28;20961;-60
2021/09/23 10:44:51;;;;;;;7.03;4.57;;;17.50;99.90;;;;;;5023220;28;20509;-64
2021/09/23 10:47:29;;;;;;;6.23;5.37;;;17.50;99.90;;;;;;5023116;28;20484;-64
2021/09/23 10:49:56;;;;;;;6.67;4.93;;;17.60;99.90;;;;;;4989669;28;20443;-64
2021/09/23 10:52:23;;;;;;;5.17;4.67;;;17.60;99.90;;;;;;5007788;28;20441;-61
2021/09/23 10:54:52;;;;;;;7.50;6.50;;;17.60;99.90;;;;;;5021082;28;20867;-61
2021/09/23 10:57:19;;;;;;;6.80;6.07;;;17.70;99.90;;;;;;5008034;28;20497;-61
2021/09/23 10:59:48;;;;;;;6.30;5.70;;;17.80;99.90;;;;;;5005628;28;20497;-61
2021/09/23 11:02:31;;;;;;;7.87;5.60;;;17.90;99.90;;;;;;5007615;28;20506;-61
2021/09/23 11:05:00;;;;;;;6.00;5.23;;;17.90;99.90;;;;;;5023464;28;20487;-61
2021/09/23 11:07:30;;;;;;;6.83;5.77;;;18.00;99.90;;;;;;5025604;28;20454;-61
2021/09/23 11:10:12;;;;;;;7.87;6.63;;;18.10;99.90;;;;;;5005333;28;21016;-60
2021/09/23 11:12:43;;;;;;;7.83;6.93;;;18.10;99.90;;;;;;5004397;28;20470;-61
2021/09/23 11:15:12;;;;;;;6.27;5.67;;;18.10;99.90;;;;;;5024945;28;20434;-61
2021/09/23 11:17:39;;;;;;;14.60;8.47;;;18.20;99.90;;;;;;5022838;28;20509;-61
2021/09/23 11:20:18;;;;;;;9.33;6.97;;;18.30;99.90;;;;;;5022152;28;20423;-61
2021/09/23 11:22:52;;;;;;;7.23;6.47;;;18.30;99.90;;;;;;5023797;28;20949;-64
2021/09/23 11:25:20;;;;;;;8.20;6.43;;;18.40;99.90;;;;;;5067368;22;21282;-64
2021/09/23 11:27:47;;;;;;;9.80;5.77;;;18.40;99.90;;;;;;5033164;28;20802;-64
2021/09/23 11:30:15;;;;;;;6.80;5.90;;;18.50;99.90;;;;;;5007204;28;21125;-65
2021/09/23 11:32:52;;;;;;;8.20;6.20;;;18.60;99.90;;;;;;5025022;28;20838;-64
2021/09/23 11:35:20;;;;;;;8.13;6.07;;;18.80;99.90;;;;;;5028306;28;20456;-64
2021/09/23 11:37:47;;;;;;;6.73;6.03;;;18.90;99.90;;;;;;5005377;28;20450;-63
2021/09/23 11:40:18;;;;;;;7.00;6.13;;;19.10;99.90;;;;;;5027277;28;20454;-63
2021/09/23 11:42:44;;;;;;;6.60;4.20;;;19.20;99.90;;;;;;5022713;28;20423;-63
2021/09/23 11:45:21;;;;;;;8.57;5.60;;;19.30;99.90;;;;;;5024969;28;20474;-65
2021/09/23 11:48:00;;;;;;;4.47;3.87;;;19.50;99.90;;;;;;5025483;28;20462;-65
2021/09/23 11:50:48;;;;;;;5.87;5.10;;;19.90;99.90;;;;;;5022691;28;20538;-65
2021/09/23 11:53:20;;;;;;;5.97;4.93;;;20.30;99.90;;;;;;5023102;28;20458;-65
2021/09/23 11:55:59;;;;;;;5.60;4.33;;;21.00;99.90;;;;;;5025815;28;20759;-65
2021/09/23 11:58:38;;;;;;;3.97;3.67;;;22.00;99.90;;;;;;5025181;28;20482;-65
2021/09/23 12:01:04;;;;;;;5.53;4.63;;;22.70;99.90;;;;;;5022460;28;20435;-66
2021/09/23 12:03:36;;;;;;;6.20;4.10;;;23.20;99.90;;;;;;5027140;28;20816;-66
2021/09/23 12:06:02;;;;;;;3.93;3.63;;;23.80;99.90;;;;;;5024706;28;20420;-66
2021/09/23 12:08:31;;;;;;;4.80;3.60;;;24.60;99.90;;;;;;5020056;28;20518;-66
2021/09/23 12:11:02;;;;;;;5.23;3.87;;;24.90;99.90;;;;;;5009959;28;20435;-62
2021/09/23 12:13:35;;;;;;;4.87;4.37;;;25.50;99.90;;;;;;5025885;28;20757;-64
2021/09/23 12:16:17;;;;;;;5.50;4.50;;;25.80;99.90;;;;;;5023693;28;20443;-64
2021/09/23 12:18:44;;;;;;;8.40;4.20;;;26.80;99.90;;;;;;5024773;28;20420;-64
2021/09/23 12:21:19;;;;;;;4.33;4.03;;;26.90;98.90;;;;;;5022785;28;20415;-65
2021/09/23 12:23:50;;;;;;;6.77;4.37;;;26.90;98.50;;;;;;5021835;28;20450;-65
2021/09/23 12:26:36;;;;;;;6.13;4.57;;;27.90;96.50;;;;;;5027930;28;20532;-65
2021/09/23 12:29:04;;;;;;;4.87;4.23;;;28.10;95.20;;;;;;5019095;28;20449;-65
2021/09/23 12:31:33;;;;;;;6.00;4.40;;;28.50;94.10;;;;;;5024825;28;20436;-67
2021/09/23 12:34:03;;;;;;;4.80;4.30;;;28.00;93.60;;;;;;5024491;28;20557;-68
2021/09/23 12:36:35;;;;;;;6.10;5.40;;;28.00;93.50;;;;;;5007144;28;20434;-67
2021/09/23 12:39:17;;;;;;;5.00;4.50;;;28.20;92.60;;;;;;5025773;28;20415;-68
2021/09/23 12:42:07;;;;;;;5.57;5.07;;;27.90;91.80;;;;;;5022312;28;20431;-64
2021/09/23 12:44:36;;;;;;;4.70;4.30;;;28.20;91.80;;;;;;5017243;28;20442;-65
2021/09/23 12:47:16;;;;;;;4.80;4.40;;;28.00;91.50;;;;;;5022453;28;20475;-69
2021/09/23 12:49:51;;;;;;;6.90;3.93;;;27.50;91.00;;;;;;5024227;28;20446;-69